sensor_id;sensor_type;location;lat;lon;timestamp;P1;P2;P0
62599;PMS7003;48671;48.922;2.346;2023-06-22T00:02:15;3.25;3.25;3.00
62599;PMS7003;48671;48.922;2.346;2023-06-22T00:04:40;4.50;4.50;3.00
62599;PMS7003;48671;48.922;2.346;2023-06-22T00:07:06;4.00;4.00;3.25
62599;PMS7003;48671;48.922;2.346;2023-06-22T00:09:31;5.00;5.00;3.00
62599;PMS7003;48671;48.922;2.346;2023-06-22T00:11:57;3.75;3.75;3.25
62599;PMS7003;48671;48.922;2.346;2023-06-22T00:14:22;3.00;3.00;3.00
62599;PMS7003;48671;48.922;2.346;2023-06-22T00:16:48;3.25;3.25;3.00
62599;PMS7003;48671;48.922;2.346;2023-06-22T00:19:14;5.00;5.00;4.00
62599;PMS7003;48671;48.922;2.346;2023-06-22T00:21:40;3.00;3.00;2.75
62599;PMS7003;48671;48.922;2.346;2023-06-22T00:24:05;4.25;4.25;3.25
62599;PMS7003;48671;48.922;2.346;2023-06-22T00:26:31;4.00;4.00;3.00
62599;PMS7003;48671;48.922;2.346;2023-06-22T00:28:56;4.00;4.00;3.00
62599;PMS7003;48671;48.922;2.346;2023-06-22T00:31:22;4.00;4.00;3.25
62599;PMS7003;48671;48.922;2.346;2023-06-22T00:33:47;5.00;5.00;4.00
62599;PMS7003;48671;48.922;2.346;2023-06-22T00:36:15;4.25;4.25;3.75
62599;PMS7003;48671;48.922;2.346;2023-06-22T00:38:41;5.25;5.25;3.75
62599;PMS7003;48671;48.922;2.346;2023-06-22T00:41:07;4.50;4.50;3.50
62599;PMS7003;48671;48.922;2.346;2023-06-22T00:43:32;5.75;5.75;4.00
62599;PMS7003;48671;48.922;2.346;2023-06-22T00:45:57;4.25;4.25;3.50
62599;PMS7003;48671;48.922;2.346;2023-06-22T00:48:23;4.50;4.50;4.00
62599;PMS7003;48671;48.922;2.346;2023-06-22T00:50:49;4.00;4.00;3.00
62599;PMS7003;48671;48.922;2.346;2023-06-22T00:53:16;4.50;4.50;3.75
62599;PMS7003;48671;48.922;2.346;2023-06-22T00:55:43;3.75;3.75;3.00
62599;PMS7003;48671;48.922;2.346;2023-06-22T00:58:11;4.00;4.00;3.50
62599;PMS7003;48671;48.922;2.346;2023-06-22T01:00:37;4.00;4.00;3.00
62599;PMS7003;48671;48.922;2.346;2023-06-22T01:03:04;3.00;3.00;2.50
62599;PMS7003;48671;48.922;2.346;2023-06-22T01:05:33;5.75;5.75;4.00
62599;PMS7003;48671;48.922;2.346;2023-06-22T01:08:12;4.00;4.00;3.25
62599;PMS7003;48671;48.922;2.346;2023-06-22T01:10:50;4.25;4.25;4.00
62599;PMS7003;48671;48.922;2.346;2023-06-22T01:13:31;4.00;4.00;3.25
62599;PMS7003;48671;48.922;2.346;2023-06-22T01:16:07;4.25;4.25;3.00
62599;PMS7003;48671;48.922;2.346;2023-06-22T01:18:40;4.25;4.25;3.25
62599;PMS7003;48671;48.922;2.346;2023-06-22T01:21:07;4.00;4.00;3.25
62599;PMS7003;48671;48.922;2.346;2023-06-22T01:23:46;4.00;4.00;3.00
62599;PMS7003;48671;48.922;2.346;2023-06-22T01:28:45;4.00;4.00;3.75
62599;PMS7003;48671;48.922;2.346;2023-06-22T01:31:16;4.00;4.00;3.50
62599;PMS7003;48671;48.922;2.346;2023-06-22T01:33:45;6.00;6.00;5.00
62599;PMS7003;48671;48.922;2.346;2023-06-22T01:36:14;5.00;3.25;2.25
62599;PMS7003;48671;48.922;2.346;2023-06-22T01:38:42;4.25;4.00;3.00
62599;PMS7003;48671;48.922;2.346;2023-06-22T01:41:09;4.00;4.00;3.00
62599;PMS7003;48671;48.922;2.346;2023-06-22T01:43:35;4.00;4.00;3.00
62599;PMS7003;48671;48.922;2.346;2023-06-22T01:46:01;4.00;4.00;3.75
62599;PMS7003;48671;48.922;2.346;2023-06-22T01:48:28;4.50;4.50;3.00
62599;PMS7003;48671;48.922;2.346;2023-06-22T01:50:54;4.00;4.00;3.00
62599;PMS7003;48671;48.922;2.346;2023-06-22T01:53:23;3.00;3.00;3.00
62599;PMS7003;48671;48.922;2.346;2023-06-22T01:55:49;4.25;4.25;4.00
62599;PMS7003;48671;48.922;2.346;2023-06-22T01:58:15;4.00;4.00;3.00
62599;PMS7003;48671;48.922;2.346;2023-06-22T02:00:41;3.00;3.00;3.00
62599;PMS7003;48671;48.922;2.346;2023-06-22T02:03:14;4.75;4.75;3.25
62599;PMS7003;48671;48.922;2.346;2023-06-22T02:05:49;4.75;4.75;3.25
62599;PMS7003;48671;48.922;2.346;2023-06-22T02:08:21;4.75;4.75;3.75
62599;PMS7003;48671;48.922;2.346;2023-06-22T02:10:50;4.00;4.00;3.00
62599;PMS7003;48671;48.922;2.346;2023-06-22T02:13:17;5.50;5.50;3.50
62599;PMS7003;48671;48.922;2.346;2023-06-22T02:15:43;5.00;5.00;4.25
62599;PMS7003;48671;48.922;2.346;2023-06-22T02:18:09;1.00;1.00;0.00
62599;PMS7003;48671;48.922;2.346;2023-06-22T02:20:38;5.00;5.00;4.00
62599;PMS7003;48671;48.922;2.346;2023-06-22T02:23:04;5.00;5.00;5.00
62599;PMS7003;48671;48.922;2.346;2023-06-22T02:25:31;5.75;5.75;4.25
62599;PMS7003;48671;48.922;2.346;2023-06-22T02:27:56;4.00;4.00;3.00
62599;PMS7003;48671;48.922;2.346;2023-06-22T02:30:22;3.50;3.50;3.00
62599;PMS7003;48671;48.922;2.346;2023-06-22T02:32:47;4.50;4.50;4.00
62599;PMS7003;48671;48.922;2.346;2023-06-22T02:35:12;3.50;3.50;2.25
62599;PMS7003;48671;48.922;2.346;2023-06-22T02:37:38;3.00;3.00;3.00
62599;PMS7003;48671;48.922;2.346;2023-06-22T02:40:06;4.50;4.50;4.00
62599;PMS7003;48671;48.922;2.346;2023-06-22T02:42:33;4.75;4.75;3.50
62599;PMS7003;48671;48.922;2.346;2023-06-22T02:44:59;4.50;4.50;3.00
62599;PMS7003;48671;48.922;2.346;2023-06-22T02:47:25;7.25;7.25;5.00
62599;PMS7003;48671;48.922;2.346;2023-06-22T02:49:50;3.00;3.00;1.50
62599;PMS7003;48671;48.922;2.346;2023-06-22T02:52:16;5.00;5.00;3.25
62599;PMS7003;48671;48.922;2.346;2023-06-22T02:54:41;5.75;5.75;4.25
62599;PMS7003;48671;48.922;2.346;2023-06-22T02:57:06;6.00;6.00;4.25
62599;PMS7003;48671;48.922;2.346;2023-06-22T02:59:38;3.75;3.75;3.00
62599;PMS7003;48671;48.922;2.346;2023-06-22T03:02:05;5.25;5.25;4.00
62599;PMS7003;48671;48.922;2.346;2023-06-22T03:04:31;5.50;5.50;4.00
62599;PMS7003;48671;48.922;2.346;2023-06-22T03:06:56;4.50;4.50;3.75
62599;PMS7003;48671;48.922;2.346;2023-06-22T03:09:25;4.50;4.50;3.75
62599;PMS7003;48671;48.922;2.346;2023-06-22T03:11:52;4.75;4.75;3.00
62599;PMS7003;48671;48.922;2.346;2023-06-22T03:14:17;4.75;4.75;3.00
62599;PMS7003;48671;48.922;2.346;2023-06-22T03:16:43;5.75;5.00;4.00
62599;PMS7003;48671;48.922;2.346;2023-06-22T03:19:08;4.75;4.75;3.50
62599;PMS7003;48671;48.922;2.346;2023-06-22T03:21:33;5.75;5.75;4.50
62599;PMS7003;48671;48.922;2.346;2023-06-22T03:23:59;5.25;5.25;4.25
62599;PMS7003;48671;48.922;2.346;2023-06-22T03:26:24;5.00;5.00;4.25
62599;PMS7003;48671;48.922;2.346;2023-06-22T03:28:51;5.00;5.00;4.00
62599;PMS7003;48671;48.922;2.346;2023-06-22T03:31:17;4.50;4.50;3.00
62599;PMS7003;48671;48.922;2.346;2023-06-22T03:33:46;4.75;4.25;3.75
62599;PMS7003;48671;48.922;2.346;2023-06-22T03:36:11;5.00;5.00;4.00
62599;PMS7003;48671;48.922;2.346;2023-06-22T03:38:37;6.75;6.75;5.75
62599;PMS7003;48671;48.922;2.346;2023-06-22T03:41:02;4.75;4.75;4.25
62599;PMS7003;48671;48.922;2.346;2023-06-22T03:43:28;4.75;4.75;3.00
62599;PMS7003;48671;48.922;2.346;2023-06-22T03:45:53;6.75;6.75;5.75
62599;PMS7003;48671;48.922;2.346;2023-06-22T03:48:18;6.25;6.25;4.00
62599;PMS7003;48671;48.922;2.346;2023-06-22T03:50:44;6.00;6.00;4.50
62599;PMS7003;48671;48.922;2.346;2023-06-22T03:53:09;5.00;5.00;4.00
62599;PMS7003;48671;48.922;2.346;2023-06-22T03:55:35;5.75;5.75;4.75
62599;PMS7003;48671;48.922;2.346;2023-06-22T03:58:01;5.00;5.00;3.75
62599;PMS7003;48671;48.922;2.346;2023-06-22T04:00:30;5.25;5.25;5.00
62599;PMS7003;48671;48.922;2.346;2023-06-22T04:02:59;7.00;7.00;5.25
62599;PMS7003;48671;48.922;2.346;2023-06-22T04:05:24;7.50;7.50;5.75
62599;PMS7003;48671;48.922;2.346;2023-06-22T04:07:49;6.25;6.25;5.25
62599;PMS7003;48671;48.922;2.346;2023-06-22T04:10:15;9.00;9.00;6.25
62599;PMS7003;48671;48.922;2.346;2023-06-22T04:12:40;5.75;5.75;4.25
62599;PMS7003;48671;48.922;2.346;2023-06-22T04:15:05;6.75;6.75;6.00
62599;PMS7003;48671;48.922;2.346;2023-06-22T04:17:31;8.50;8.50;7.00
62599;PMS7003;48671;48.922;2.346;2023-06-22T04:19:56;7.50;7.50;5.50
62599;PMS7003;48671;48.922;2.346;2023-06-22T04:22:22;5.00;5.00;3.50
62599;PMS7003;48671;48.922;2.346;2023-06-22T04:24:47;8.00;8.00;7.00
62599;PMS7003;48671;48.922;2.346;2023-06-22T04:27:12;9.50;9.50;6.75
62599;PMS7003;48671;48.922;2.346;2023-06-22T04:29:38;28.75;24.75;15.50
62599;PMS7003;48671;48.922;2.346;2023-06-22T04:32:08;45.00;38.50;25.50
62599;PMS7003;48671;48.922;2.346;2023-06-22T04:34:34;9.25;9.25;6.00
62599;PMS7003;48671;48.922;2.346;2023-06-22T04:36:59;7.25;7.25;5.50
62599;PMS7003;48671;48.922;2.346;2023-06-22T04:39:24;8.00;8.00;5.50
62599;PMS7003;48671;48.922;2.346;2023-06-22T04:41:51;7.50;7.50;6.25
62599;PMS7003;48671;48.922;2.346;2023-06-22T04:44:17;10.25;10.25;8.50
62599;PMS7003;48671;48.922;2.346;2023-06-22T04:46:50;9.25;9.25;7.75
62599;PMS7003;48671;48.922;2.346;2023-06-22T04:49:18;9.00;9.00;6.50
62599;PMS7003;48671;48.922;2.346;2023-06-22T04:51:45;9.25;9.25;7.25
62599;PMS7003;48671;48.922;2.346;2023-06-22T04:54:11;11.75;10.00;8.00
62599;PMS7003;48671;48.922;2.346;2023-06-22T04:56:36;10.50;10.50;7.00
62599;PMS7003;48671;48.922;2.346;2023-06-22T04:59:02;9.25;9.25;7.50
62599;PMS7003;48671;48.922;2.346;2023-06-22T05:01:30;10.00;9.25;7.00
62599;PMS7003;48671;48.922;2.346;2023-06-22T05:03:56;9.50;9.50;7.00
62599;PMS7003;48671;48.922;2.346;2023-06-22T05:06:23;11.25;11.25;8.50
62599;PMS7003;48671;48.922;2.346;2023-06-22T05:08:55;12.00;12.00;8.25
62599;PMS7003;48671;48.922;2.346;2023-06-22T05:11:25;11.25;11.25;7.50
62599;PMS7003;48671;48.922;2.346;2023-06-22T05:13:53;12.75;12.25;8.00
62599;PMS7003;48671;48.922;2.346;2023-06-22T05:16:19;15.00;13.50;9.75
62599;PMS7003;48671;48.922;2.346;2023-06-22T05:18:52;14.50;14.50;9.75
62599;PMS7003;48671;48.922;2.346;2023-06-22T05:21:21;11.25;11.25;8.00
62599;PMS7003;48671;48.922;2.346;2023-06-22T05:23:51;15.50;15.00;10.00
62599;PMS7003;48671;48.922;2.346;2023-06-22T05:26:18;13.75;13.75;10.00
62599;PMS7003;48671;48.922;2.346;2023-06-22T05:28:45;15.75;15.75;11.00
62599;PMS7003;48671;48.922;2.346;2023-06-22T05:31:13;12.75;12.75;8.75
62599;PMS7003;48671;48.922;2.346;2023-06-22T05:33:40;13.50;13.50;9.00
62599;PMS7003;48671;48.922;2.346;2023-06-22T05:36:06;16.00;16.00;11.75
62599;PMS7003;48671;48.922;2.346;2023-06-22T05:38:31;14.25;14.25;11.50
62599;PMS7003;48671;48.922;2.346;2023-06-22T05:40:57;15.75;15.25;11.00
62599;PMS7003;48671;48.922;2.346;2023-06-22T05:43:23;18.00;18.00;12.00
62599;PMS7003;48671;48.922;2.346;2023-06-22T05:45:48;16.75;16.75;13.00
62599;PMS7003;48671;48.922;2.346;2023-06-22T05:48:13;18.25;18.25;13.00
62599;PMS7003;48671;48.922;2.346;2023-06-22T05:50:39;13.75;13.75;11.00
62599;PMS7003;48671;48.922;2.346;2023-06-22T05:53:04;16.75;16.75;12.00
62599;PMS7003;48671;48.922;2.346;2023-06-22T05:55:31;16.75;15.50;12.00
62599;PMS7003;48671;48.922;2.346;2023-06-22T05:57:57;17.00;17.00;12.75
62599;PMS7003;48671;48.922;2.346;2023-06-22T06:00:22;16.25;16.25;12.00
62599;PMS7003;48671;48.922;2.346;2023-06-22T06:02:48;14.50;14.50;10.75
62599;PMS7003;48671;48.922;2.346;2023-06-22T06:05:14;14.50;14.50;11.00
62599;PMS7003;48671;48.922;2.346;2023-06-22T06:07:40;15.50;15.50;12.25
62599;PMS7003;48671;48.922;2.346;2023-06-22T06:10:06;16.75;16.00;11.00
62599;PMS7003;48671;48.922;2.346;2023-06-22T06:12:31;17.25;17.25;12.75
62599;PMS7003;48671;48.922;2.346;2023-06-22T06:14:57;17.50;17.00;12.00
62599;PMS7003;48671;48.922;2.346;2023-06-22T06:17:22;17.25;17.25;13.00
62599;PMS7003;48671;48.922;2.346;2023-06-22T06:19:48;16.00;16.00;11.25
62599;PMS7003;48671;48.922;2.346;2023-06-22T06:22:13;21.25;21.25;14.00
62599;PMS7003;48671;48.922;2.346;2023-06-22T06:24:38;16.00;16.00;11.75
62599;PMS7003;48671;48.922;2.346;2023-06-22T06:27:04;18.25;18.25;12.25
62599;PMS7003;48671;48.922;2.346;2023-06-22T06:29:29;22.00;22.00;15.00
62599;PMS7003;48671;48.922;2.346;2023-06-22T06:31:55;18.25;18.00;14.25
62599;PMS7003;48671;48.922;2.346;2023-06-22T06:34:21;18.75;18.75;12.00
62599;PMS7003;48671;48.922;2.346;2023-06-22T06:36:47;20.50;20.50;13.75
62599;PMS7003;48671;48.922;2.346;2023-06-22T06:39:12;20.50;19.25;14.00
62599;PMS7003;48671;48.922;2.346;2023-06-22T06:41:38;16.00;16.00;9.50
62599;PMS7003;48671;48.922;2.346;2023-06-22T06:44:03;21.50;20.50;14.00
62599;PMS7003;48671;48.922;2.346;2023-06-22T06:46:28;17.50;17.50;14.00
62599;PMS7003;48671;48.922;2.346;2023-06-22T06:48:54;18.75;18.75;12.75
62599;PMS7003;48671;48.922;2.346;2023-06-22T06:51:19;19.25;19.25;15.00
62599;PMS7003;48671;48.922;2.346;2023-06-22T06:53:44;17.75;17.75;14.00
62599;PMS7003;48671;48.922;2.346;2023-06-22T06:56:10;22.25;22.25;15.75
62599;PMS7003;48671;48.922;2.346;2023-06-22T06:58:35;24.50;23.25;15.00
62599;PMS7003;48671;48.922;2.346;2023-06-22T07:01:01;18.00;18.00;13.75
62599;PMS7003;48671;48.922;2.346;2023-06-22T07:03:28;22.25;20.25;13.25
62599;PMS7003;48671;48.922;2.346;2023-06-22T07:05:53;27.50;25.00;15.75
62599;PMS7003;48671;48.922;2.346;2023-06-22T07:08:18;20.75;20.75;15.75
62599;PMS7003;48671;48.922;2.346;2023-06-22T07:10:44;24.50;24.50;16.00
62599;PMS7003;48671;48.922;2.346;2023-06-22T07:13:09;25.50;25.50;17.25
62599;PMS7003;48671;48.922;2.346;2023-06-22T07:15:34;23.75;23.75;17.75
62599;PMS7003;48671;48.922;2.346;2023-06-22T07:18:00;29.33;25.67;16.00
62599;PMS7003;48671;48.922;2.346;2023-06-22T07:20:25;25.50;25.00;18.25
62599;PMS7003;48671;48.922;2.346;2023-06-22T07:22:50;24.75;24.00;16.00
62599;PMS7003;48671;48.922;2.346;2023-06-22T07:25:16;24.50;24.50;17.00
62599;PMS7003;48671;48.922;2.346;2023-06-22T07:27:46;20.50;20.50;15.00
62599;PMS7003;48671;48.922;2.346;2023-06-22T07:30:21;26.25;26.25;15.75
62599;PMS7003;48671;48.922;2.346;2023-06-22T07:32:47;21.25;19.25;14.00
62599;PMS7003;48671;48.922;2.346;2023-06-22T07:35:12;25.75;24.50;16.50
62599;PMS7003;48671;48.922;2.346;2023-06-22T07:37:37;22.50;22.50;15.25
62599;PMS7003;48671;48.922;2.346;2023-06-22T07:40:03;25.00;23.50;13.75
62599;PMS7003;48671;48.922;2.346;2023-06-22T07:42:31;27.25;26.75;16.00
62599;PMS7003;48671;48.922;2.346;2023-06-22T07:44:57;23.25;23.25;17.75
62599;PMS7003;48671;48.922;2.346;2023-06-22T07:47:23;25.00;25.00;16.50
62599;PMS7003;48671;48.922;2.346;2023-06-22T07:49:50;26.75;26.75;15.75
62599;PMS7003;48671;48.922;2.346;2023-06-22T07:52:16;25.50;25.50;18.00
62599;PMS7003;48671;48.922;2.346;2023-06-22T07:54:42;28.33;27.67;18.33
62599;PMS7003;48671;48.922;2.346;2023-06-22T07:57:07;25.67;25.67;17.00
62599;PMS7003;48671;48.922;2.346;2023-06-22T07:59:32;23.75;23.75;16.50
62599;PMS7003;48671;48.922;2.346;2023-06-22T08:01:57;28.33;27.00;18.33
62599;PMS7003;48671;48.922;2.346;2023-06-22T08:04:23;25.00;24.75;16.25
62599;PMS7003;48671;48.922;2.346;2023-06-22T08:06:48;24.67;24.67;17.67
62599;PMS7003;48671;48.922;2.346;2023-06-22T08:09:14;26.50;26.00;17.75
62599;PMS7003;48671;48.922;2.346;2023-06-22T08:11:39;23.00;23.00;15.75
62599;PMS7003;48671;48.922;2.346;2023-06-22T08:14:05;23.00;23.00;17.00
62599;PMS7003;48671;48.922;2.346;2023-06-22T08:16:30;27.50;27.50;18.25
62599;PMS7003;48671;48.922;2.346;2023-06-22T08:18:55;28.33;27.67;19.00
62599;PMS7003;48671;48.922;2.346;2023-06-22T08:21:21;27.00;26.25;16.75
62599;PMS7003;48671;48.922;2.346;2023-06-22T08:23:47;25.00;25.00;17.00
62599;PMS7003;48671;48.922;2.346;2023-06-22T08:26:13;25.75;25.25;16.50
62599;PMS7003;48671;48.922;2.346;2023-06-22T08:28:39;26.50;26.25;19.00
62599;PMS7003;48671;48.922;2.346;2023-06-22T08:31:05;25.00;24.50;18.00
62599;PMS7003;48671;48.922;2.346;2023-06-22T08:33:30;29.50;28.25;18.25
62599;PMS7003;48671;48.922;2.346;2023-06-22T08:35:56;31.75;30.75;20.25
62599;PMS7003;48671;48.922;2.346;2023-06-22T08:38:23;26.50;26.50;17.00
62599;PMS7003;48671;48.922;2.346;2023-06-22T08:40:48;24.00;23.50;16.00
62599;PMS7003;48671;48.922;2.346;2023-06-22T08:43:13;26.00;26.00;17.67
62599;PMS7003;48671;48.922;2.346;2023-06-22T08:45:39;29.00;29.00;19.75
62599;PMS7003;48671;48.922;2.346;2023-06-22T08:48:04;25.50;25.50;19.00
62599;PMS7003;48671;48.922;2.346;2023-06-22T08:50:30;27.75;27.75;18.25
62599;PMS7003;48671;48.922;2.346;2023-06-22T08:52:55;25.75;25.75;16.75
62599;PMS7003;48671;48.922;2.346;2023-06-22T08:55:20;28.25;28.25;18.25
62599;PMS7003;48671;48.922;2.346;2023-06-22T08:57:46;26.25;26.25;17.00
62599;PMS7003;48671;48.922;2.346;2023-06-22T09:00:11;24.25;24.25;15.25
62599;PMS7003;48671;48.922;2.346;2023-06-22T09:02:41;23.50;21.75;13.50
62599;PMS7003;48671;48.922;2.346;2023-06-22T09:05:07;26.00;25.75;16.75
62599;PMS7003;48671;48.922;2.346;2023-06-22T09:07:33;25.00;25.00;17.75
62599;PMS7003;48671;48.922;2.346;2023-06-22T09:09:59;26.50;26.50;16.75
62599;PMS7003;48671;48.922;2.346;2023-06-22T09:12:25;32.50;29.75;19.00
62599;PMS7003;48671;48.922;2.346;2023-06-22T09:14:52;26.00;26.00;16.25
62599;PMS7003;48671;48.922;2.346;2023-06-22T09:17:17;23.00;23.00;12.75
62599;PMS7003;48671;48.922;2.346;2023-06-22T09:19:43;25.25;25.25;14.75
62599;PMS7003;48671;48.922;2.346;2023-06-22T09:22:08;20.75;20.75;15.00
62599;PMS7003;48671;48.922;2.346;2023-06-22T09:24:33;20.75;20.75;15.50
62599;PMS7003;48671;48.922;2.346;2023-06-22T09:26:59;23.00;22.50;14.00
62599;PMS7003;48671;48.922;2.346;2023-06-22T09:29:24;20.25;20.25;15.00
62599;PMS7003;48671;48.922;2.346;2023-06-22T09:31:50;21.50;21.50;15.00
62599;PMS7003;48671;48.922;2.346;2023-06-22T09:34:15;20.75;20.00;13.50
62599;PMS7003;48671;48.922;2.346;2023-06-22T09:36:45;24.75;24.75;17.50
62599;PMS7003;48671;48.922;2.346;2023-06-22T09:39:11;21.50;21.50;15.00
62599;PMS7003;48671;48.922;2.346;2023-06-22T09:41:36;21.25;21.25;14.50
62599;PMS7003;48671;48.922;2.346;2023-06-22T09:44:01;20.67;20.67;14.00
62599;PMS7003;48671;48.922;2.346;2023-06-22T09:46:27;24.33;24.33;16.33
62599;PMS7003;48671;48.922;2.346;2023-06-22T09:48:52;20.00;20.00;15.25
62599;PMS7003;48671;48.922;2.346;2023-06-22T09:51:18;22.75;22.75;13.75
62599;PMS7003;48671;48.922;2.346;2023-06-22T09:53:44;21.25;20.50;15.50
62599;PMS7003;48671;48.922;2.346;2023-06-22T09:56:10;19.75;19.75;13.50
62599;PMS7003;48671;48.922;2.346;2023-06-22T09:58:41;19.75;19.75;13.00
62599;PMS7003;48671;48.922;2.346;2023-06-22T10:01:07;21.00;19.75;14.75
62599;PMS7003;48671;48.922;2.346;2023-06-22T10:03:32;20.00;20.00;12.00
62599;PMS7003;48671;48.922;2.346;2023-06-22T10:05:58;19.75;19.75;14.00
62599;PMS7003;48671;48.922;2.346;2023-06-22T10:08:23;21.75;21.75;13.75
62599;PMS7003;48671;48.922;2.346;2023-06-22T10:10:48;21.33;19.33;12.00
62599;PMS7003;48671;48.922;2.346;2023-06-22T10:13:14;20.50;19.25;12.75
62599;PMS7003;48671;48.922;2.346;2023-06-22T10:15:39;18.00;18.00;12.50
62599;PMS7003;48671;48.922;2.346;2023-06-22T10:18:05;17.00;17.00;12.00
62599;PMS7003;48671;48.922;2.346;2023-06-22T10:20:30;17.25;17.25;13.00
62599;PMS7003;48671;48.922;2.346;2023-06-22T10:22:56;16.25;16.25;11.00
62599;PMS7003;48671;48.922;2.346;2023-06-22T10:25:21;17.25;17.25;12.75
62599;PMS7003;48671;48.922;2.346;2023-06-22T10:27:47;16.00;16.00;12.00
62599;PMS7003;48671;48.922;2.346;2023-06-22T10:30:13;17.25;17.25;13.00
62599;PMS7003;48671;48.922;2.346;2023-06-22T10:32:39;13.00;13.00;9.75
62599;PMS7003;48671;48.922;2.346;2023-06-22T10:35:05;15.25;15.25;12.25
62599;PMS7003;48671;48.922;2.346;2023-06-22T10:37:31;18.00;17.00;12.25
62599;PMS7003;48671;48.922;2.346;2023-06-22T10:39:56;12.25;11.25;9.00
62599;PMS7003;48671;48.922;2.346;2023-06-22T10:42:22;14.50;14.50;10.25
62599;PMS7003;48671;48.922;2.346;2023-06-22T10:44:47;15.00;15.00;10.67
62599;PMS7003;48671;48.922;2.346;2023-06-22T10:47:12;15.00;15.00;11.00
62599;PMS7003;48671;48.922;2.346;2023-06-22T10:49:38;12.75;12.75;10.00
62599;PMS7003;48671;48.922;2.346;2023-06-22T10:52:05;14.25;14.25;11.50
62599;PMS7003;48671;48.922;2.346;2023-06-22T10:54:32;14.25;14.25;11.00
62599;PMS7003;48671;48.922;2.346;2023-06-22T10:56:58;14.25;14.25;9.00
62599;PMS7003;48671;48.922;2.346;2023-06-22T10:59:24;11.25;11.25;9.00
62599;PMS7003;48671;48.922;2.346;2023-06-22T11:01:50;14.00;14.00;10.00
62599;PMS7003;48671;48.922;2.346;2023-06-22T11:04:16;12.50;12.50;9.50
62599;PMS7003;48671;48.922;2.346;2023-06-22T11:06:42;16.00;16.00;12.75
62599;PMS7003;48671;48.922;2.346;2023-06-22T11:09:09;14.25;13.75;11.25
62599;PMS7003;48671;48.922;2.346;2023-06-22T11:11:34;13.25;13.25;9.00
62599;PMS7003;48671;48.922;2.346;2023-06-22T11:14:00;13.50;13.50;10.50
62599;PMS7003;48671;48.922;2.346;2023-06-22T11:16:25;12.33;12.33;9.00
62599;PMS7003;48671;48.922;2.346;2023-06-22T11:18:50;14.00;14.00;10.00
62599;PMS7003;48671;48.922;2.346;2023-06-22T11:21:15;16.00;16.00;11.00
62599;PMS7003;48671;48.922;2.346;2023-06-22T11:23:41;12.25;12.25;9.50
62599;PMS7003;48671;48.922;2.346;2023-06-22T11:26:07;13.25;13.25;10.00
62599;PMS7003;48671;48.922;2.346;2023-06-22T11:28:32;14.75;14.50;11.25
62599;PMS7003;48671;48.922;2.346;2023-06-22T11:30:58;13.00;13.00;10.00
62599;PMS7003;48671;48.922;2.346;2023-06-22T11:33:23;13.75;13.75;11.00
62599;PMS7003;48671;48.922;2.346;2023-06-22T11:35:49;12.75;12.75;9.75
62599;PMS7003;48671;48.922;2.346;2023-06-22T11:38:14;13.00;13.00;10.00
62599;PMS7003;48671;48.922;2.346;2023-06-22T11:40:40;14.50;14.50;11.50
62599;PMS7003;48671;48.922;2.346;2023-06-22T11:43:05;15.00;15.00;11.50
62599;PMS7003;48671;48.922;2.346;2023-06-22T11:45:30;17.25;17.25;13.00
62599;PMS7003;48671;48.922;2.346;2023-06-22T11:47:56;17.75;17.75;15.00
62599;PMS7003;48671;48.922;2.346;2023-06-22T11:50:21;16.25;16.25;12.00
62599;PMS7003;48671;48.922;2.346;2023-06-22T11:52:46;17.75;17.75;12.75
62599;PMS7003;48671;48.922;2.346;2023-06-22T11:55:12;20.25;20.25;15.25
62599;PMS7003;48671;48.922;2.346;2023-06-22T11:57:38;20.00;20.00;15.00
62599;PMS7003;48671;48.922;2.346;2023-06-22T12:00:16;21.00;21.00;16.25
62599;PMS7003;48671;48.922;2.346;2023-06-22T12:02:43;16.75;16.75;13.50
62599;PMS7003;48671;48.922;2.346;2023-06-22T12:05:09;23.25;23.25;17.75
62599;PMS7003;48671;48.922;2.346;2023-06-22T12:07:35;17.50;17.50;14.25
62599;PMS7003;48671;48.922;2.346;2023-06-22T12:10:01;22.50;22.50;15.75
62599;PMS7003;48671;48.922;2.346;2023-06-22T12:12:27;24.25;21.25;16.00
62599;PMS7003;48671;48.922;2.346;2023-06-22T12:14:52;21.67;21.67;16.67
62599;PMS7003;48671;48.922;2.346;2023-06-22T12:17:17;20.75;19.50;14.00
62599;PMS7003;48671;48.922;2.346;2023-06-22T12:19:42;20.00;20.00;15.33
62599;PMS7003;48671;48.922;2.346;2023-06-22T12:22:08;19.25;19.25;14.25
62599;PMS7003;48671;48.922;2.346;2023-06-22T12:24:33;20.00;20.00;15.00
62599;PMS7003;48671;48.922;2.346;2023-06-22T12:26:58;19.33;19.33;16.00
62599;PMS7003;48671;48.922;2.346;2023-06-22T12:29:24;21.33;21.33;16.00
62599;PMS7003;48671;48.922;2.346;2023-06-22T12:31:49;22.00;22.00;15.33
62599;PMS7003;48671;48.922;2.346;2023-06-22T12:34:14;20.50;20.50;14.25
62599;PMS7003;48671;48.922;2.346;2023-06-22T12:36:39;17.25;17.25;13.50
62599;PMS7003;48671;48.922;2.346;2023-06-22T12:39:05;17.75;17.75;14.50
62599;PMS7003;48671;48.922;2.346;2023-06-22T12:41:30;16.50;16.50;13.50
62599;PMS7003;48671;48.922;2.346;2023-06-22T12:43:55;18.75;18.75;14.75
62599;PMS7003;48671;48.922;2.346;2023-06-22T12:46:21;19.33;19.33;14.00
62599;PMS7003;48671;48.922;2.346;2023-06-22T12:48:46;18.25;18.25;14.00
62599;PMS7003;48671;48.922;2.346;2023-06-22T12:51:11;19.00;18.33;13.33
62599;PMS7003;48671;48.922;2.346;2023-06-22T12:53:37;17.33;17.33;13.67
62599;PMS7003;48671;48.922;2.346;2023-06-22T12:56:02;15.00;15.00;11.75
62599;PMS7003;48671;48.922;2.346;2023-06-22T12:58:27;16.25;16.25;13.00
62599;PMS7003;48671;48.922;2.346;2023-06-22T13:00:53;20.67;20.67;14.67
62599;PMS7003;48671;48.922;2.346;2023-06-22T13:03:18;20.33;19.67;13.33
62599;PMS7003;48671;48.922;2.346;2023-06-22T13:05:44;15.50;15.50;13.00
62599;PMS7003;48671;48.922;2.346;2023-06-22T13:08:09;20.00;18.00;13.75
62599;PMS7003;48671;48.922;2.346;2023-06-22T13:10:35;22.50;22.50;15.00
62599;PMS7003;48671;48.922;2.346;2023-06-22T13:13:01;20.50;20.50;15.25
62599;PMS7003;48671;48.922;2.346;2023-06-22T13:15:27;17.50;17.50;13.00
62599;PMS7003;48671;48.922;2.346;2023-06-22T13:17:53;19.75;19.75;14.50
62599;PMS7003;48671;48.922;2.346;2023-06-22T13:20:19;20.50;20.50;16.50
62599;PMS7003;48671;48.922;2.346;2023-06-22T13:22:44;22.50;22.50;16.75
62599;PMS7003;48671;48.922;2.346;2023-06-22T13:25:10;20.33;20.33;15.67
62599;PMS7003;48671;48.922;2.346;2023-06-22T13:27:43;24.25;24.25;18.00
62599;PMS7003;48671;48.922;2.346;2023-06-22T13:30:09;23.50;23.50;17.50
62599;PMS7003;48671;48.922;2.346;2023-06-22T13:32:34;21.00;21.00;16.00
62599;PMS7003;48671;48.922;2.346;2023-06-22T13:35:00;23.50;22.25;16.75
62599;PMS7003;48671;48.922;2.346;2023-06-22T13:37:25;21.00;21.00;14.75
62599;PMS7003;48671;48.922;2.346;2023-06-22T13:39:52;24.00;24.00;15.25
62599;PMS7003;48671;48.922;2.346;2023-06-22T13:42:17;21.50;21.50;16.00
62599;PMS7003;48671;48.922;2.346;2023-06-22T13:44:42;20.25;20.25;16.00
62599;PMS7003;48671;48.922;2.346;2023-06-22T13:47:08;18.00;18.00;15.00
62599;PMS7003;48671;48.922;2.346;2023-06-22T13:49:33;19.50;19.50;14.25
62599;PMS7003;48671;48.922;2.346;2023-06-22T13:51:59;21.50;20.00;14.00
62599;PMS7003;48671;48.922;2.346;2023-06-22T13:54:24;18.50;18.50;13.75
62599;PMS7003;48671;48.922;2.346;2023-06-22T13:56:49;17.50;17.50;13.00